HISTORICAL SENSOR DATA

Sensor Data Report

DB LIVE
CURRENT TIME--:--:--
DEVICE NETWORK Gateway Status
13 ESP · realtime ~1s · history 60s
Weather WS-MOD-01
ONLINE
Actuator ACT-MOD-01
OFFLINE
Mainboard L3 MB-L3-01
ONLINE
Mainboard L5 MB-L5-01
ONLINE
Remote AC AC-REMOTE-01
OFFLINE
PZEM L3-01 PWR-L3-01
OFFLINE
PZEM L3-02 PWR-L3-02
OFFLINE
PZEM L3-03 PWR-L3-03
OFFLINE
PZEM L3-04 PWR-L3-04
OFFLINE
PZEM L5-01 PWR-L5-01
ONLINE
PZEM L5-02 PWR-L5-02
OFFLINE
PZEM L5-03 PWR-L5-03
OFFLINE
PZEM L5-04 PWR-L5-04
OFFLINE
REPORT FILTER

Periode & Sensor

DATABASE HISTORY
RESET
QUICK RANGE Hari ini 7 hari 30 hari
PERIODE31 Aug 2026sampai 06 Sep 2026
TOTAL DATA49,591sensor readings
MINIMUM-0.50sesuai filter
AVERAGE94.84sesuai filter
MAXIMUM32,564.20sesuai filter
REPORT RESULT

Data Sensor

31/08/2026 — 06/09/2026 EXPORT CSV
NOTANGGALWAKTUDEVICECHANNELSENSORVALUEUNIT
8101 06/09/2026 11:53:00 MB-L5-01Mainboard Lantai 5 L5-SHT-02-RH SHT20 2 Humidity 36.80 %RH
8102 06/09/2026 11:53:00 MB-L5-01Mainboard Lantai 5 L5-LUX-05 Illuminance / LUX 5 2,344.30 lux
8103 06/09/2026 11:53:00 MB-L5-01Mainboard Lantai 5 L5-AI-04 Analog Input 4 3.05 V
8104 06/09/2026 11:53:00 MB-L5-01Mainboard Lantai 5 L5-HFT-01 Heat Flow Temperature 1 29.60 °C
8105 06/09/2026 11:53:00 MB-L5-01Mainboard Lantai 5 L5-BGT-01 Black Globe Temperature 1 28.30 °C
8106 06/09/2026 11:53:00 MB-L5-01Mainboard Lantai 5 L5-RAD-02 Radiation 2 4.00 W/m²
8107 06/09/2026 11:53:00 MB-L5-01Mainboard Lantai 5 L5-AI-01 Analog Input 1 3.05 V
8108 06/09/2026 11:53:00 MB-L5-01Mainboard Lantai 5 L5-SHT-01-T SHT20 1 Temperature 29.60 °C
8109 06/09/2026 11:53:00 MB-L5-01Mainboard Lantai 5 L5-SHT-03-T SHT20 3 Temperature 29.20 °C
8110 06/09/2026 11:53:00 WS-MOD-01Weather Station Module WS-DIR Arah Angin 107.30 °
8111 06/09/2026 11:53:00 MB-L5-01Mainboard Lantai 5 L5-AI-06 Analog Input 6 3.05 V
8112 06/09/2026 11:53:00 MB-L5-01Mainboard Lantai 5 L5-SHT-01-RH SHT20 1 Humidity 36.30 %RH
8113 06/09/2026 11:53:00 MB-L5-01Mainboard Lantai 5 L5-BGT-03 Black Globe Temperature 3 28.30 °C
8114 06/09/2026 11:53:00 MB-L5-01Mainboard Lantai 5 L5-AI-03 Analog Input 3 3.05 V
8115 06/09/2026 11:53:00 WS-MOD-01Weather Station Module WS-WIND Kecepatan Angin 3.37 m/s
8116 06/09/2026 11:53:00 MB-L5-01Mainboard Lantai 5 L5-SHT-03-RH SHT20 3 Humidity 36.50 %RH
8117 06/09/2026 11:53:00 MB-L5-01Mainboard Lantai 5 L5-ST-02 Surface Temperature 2 31.60 °C
8118 06/09/2026 11:53:00 MB-L5-01Mainboard Lantai 5 L5-LUX-02 Illuminance / LUX 2 2,644.00 lux
8119 06/09/2026 11:53:00 MB-L5-01Mainboard Lantai 5 L5-LUX-01 Illuminance / LUX 1 546.50 lux
8120 06/09/2026 11:53:00 MB-L5-01Mainboard Lantai 5 L5-LUX-06 Illuminance / LUX 6 826.80 lux
8121 06/09/2026 11:53:00 WS-MOD-01Weather Station Module WS-TEMP Suhu Udara 27.80 °C
8122 06/09/2026 11:53:00 MB-L5-01Mainboard Lantai 5 L5-SHT-02-T SHT20 2 Temperature 29.10 °C
8123 06/09/2026 11:53:00 MB-L5-01Mainboard Lantai 5 L5-AI-05 Analog Input 5 3.05 V
8124 06/09/2026 11:53:00 MB-L5-01Mainboard Lantai 5 L5-LUX-03 Illuminance / LUX 3 961.50 lux
8125 06/09/2026 11:53:00 MB-L5-01Mainboard Lantai 5 L5-HFT-02 Heat Flow Temperature 2 28.60 °C
8126 06/09/2026 11:53:00 MB-L5-01Mainboard Lantai 5 L5-BGT-02 Black Globe Temperature 2 28.10 °C
8127 06/09/2026 11:52:00 MB-L5-01Mainboard Lantai 5 L5-SHT-02-RH SHT20 2 Humidity 37.40 %RH
8128 06/09/2026 11:52:00 MB-L5-01Mainboard Lantai 5 L5-LUX-05 Illuminance / LUX 5 2,339.20 lux
8129 06/09/2026 11:52:00 MB-L5-01Mainboard Lantai 5 L5-AI-04 Analog Input 4 3.05 V
8130 06/09/2026 11:52:00 MB-L5-01Mainboard Lantai 5 L5-HFT-01 Heat Flow Temperature 1 29.70 °C
8131 06/09/2026 11:52:00 MB-L5-01Mainboard Lantai 5 L5-BGT-01 Black Globe Temperature 1 28.20 °C
8132 06/09/2026 11:52:00 MB-L5-01Mainboard Lantai 5 L5-RAD-02 Radiation 2 4.00 W/m²
8133 06/09/2026 11:52:00 MB-L5-01Mainboard Lantai 5 L5-AI-01 Analog Input 1 3.05 V
8134 06/09/2026 11:52:00 MB-L5-01Mainboard Lantai 5 L5-SHT-01-T SHT20 1 Temperature 29.40 °C
8135 06/09/2026 11:52:00 MB-L5-01Mainboard Lantai 5 L5-SHT-03-T SHT20 3 Temperature 28.90 °C
8136 06/09/2026 11:52:00 WS-MOD-01Weather Station Module WS-DIR Arah Angin 348.70 °
8137 06/09/2026 11:52:00 MB-L5-01Mainboard Lantai 5 L5-AI-06 Analog Input 6 3.05 V
8138 06/09/2026 11:52:00 MB-L5-01Mainboard Lantai 5 L5-SHT-01-RH SHT20 1 Humidity 36.80 %RH
8139 06/09/2026 11:52:00 MB-L5-01Mainboard Lantai 5 L5-BGT-03 Black Globe Temperature 3 28.30 °C
8140 06/09/2026 11:52:00 MB-L5-01Mainboard Lantai 5 L5-AI-03 Analog Input 3 3.05 V
8141 06/09/2026 11:52:00 WS-MOD-01Weather Station Module WS-WIND Kecepatan Angin 3.59 m/s
8142 06/09/2026 11:52:00 MB-L5-01Mainboard Lantai 5 L5-SHT-03-RH SHT20 3 Humidity 36.90 %RH
8143 06/09/2026 11:52:00 MB-L5-01Mainboard Lantai 5 L5-ST-02 Surface Temperature 2 31.50 °C
8144 06/09/2026 11:52:00 MB-L5-01Mainboard Lantai 5 L5-LUX-02 Illuminance / LUX 2 2,645.50 lux
8145 06/09/2026 11:52:00 MB-L5-01Mainboard Lantai 5 L5-LUX-01 Illuminance / LUX 1 556.00 lux
8146 06/09/2026 11:52:00 MB-L5-01Mainboard Lantai 5 L5-LUX-06 Illuminance / LUX 6 826.10 lux
8147 06/09/2026 11:52:00 WS-MOD-01Weather Station Module WS-TEMP Suhu Udara 29.30 °C
8148 06/09/2026 11:52:00 MB-L5-01Mainboard Lantai 5 L5-SHT-02-T SHT20 2 Temperature 28.80 °C
8149 06/09/2026 11:52:00 MB-L5-01Mainboard Lantai 5 L5-AI-05 Analog Input 5 3.05 V
8150 06/09/2026 11:52:00 MB-L5-01Mainboard Lantai 5 L5-LUX-03 Illuminance / LUX 3 961.80 lux
8151 06/09/2026 11:52:00 MB-L5-01Mainboard Lantai 5 L5-HFT-02 Heat Flow Temperature 2 28.40 °C
8152 06/09/2026 11:52:00 MB-L5-01Mainboard Lantai 5 L5-BGT-02 Black Globe Temperature 2 27.90 °C
8153 06/09/2026 11:52:00 MB-L5-01Mainboard Lantai 5 L5-AI-02 Analog Input 2 3.05 V
8154 06/09/2026 11:52:00 WS-MOD-01Weather Station Module WS-RH Kelembapan Udara 39.30 %RH
8155 06/09/2026 11:52:00 MB-L5-01Mainboard Lantai 5 L5-LUX-04 Illuminance / LUX 4 542.60 lux
8156 06/09/2026 11:52:00 MB-L5-01Mainboard Lantai 5 L5-ST-01 Surface Temperature 1 28.90 °C
8157 06/09/2026 11:52:00 WS-MOD-01Weather Station Module WS-PRES Tekanan Udara 910.00 hPa
8158 06/09/2026 11:52:00 MB-L5-01Mainboard Lantai 5 L5-RAD-01 Radiation 1 4.00 W/m²
8159 06/09/2026 11:51:00 MB-L5-01Mainboard Lantai 5 L5-SHT-01-T SHT20 1 Temperature 28.40 °C
8160 06/09/2026 11:51:00 MB-L5-01Mainboard Lantai 5 L5-SHT-03-T SHT20 3 Temperature 28.10 °C
8161 06/09/2026 11:51:00 WS-MOD-01Weather Station Module WS-DIR Arah Angin 183.10 °
8162 06/09/2026 11:51:00 MB-L5-01Mainboard Lantai 5 L5-AI-06 Analog Input 6 3.05 V
8163 06/09/2026 11:51:00 MB-L5-01Mainboard Lantai 5 L5-SHT-01-RH SHT20 1 Humidity 37.80 %RH
8164 06/09/2026 11:51:00 MB-L5-01Mainboard Lantai 5 L5-BGT-03 Black Globe Temperature 3 28.20 °C
8165 06/09/2026 11:51:00 MB-L5-01Mainboard Lantai 5 L5-AI-03 Analog Input 3 3.05 V
8166 06/09/2026 11:51:00 WS-MOD-01Weather Station Module WS-WIND Kecepatan Angin 2.36 m/s
8167 06/09/2026 11:51:00 MB-L5-01Mainboard Lantai 5 L5-SHT-03-RH SHT20 3 Humidity 37.80 %RH
8168 06/09/2026 11:51:00 MB-L5-01Mainboard Lantai 5 L5-ST-02 Surface Temperature 2 31.40 °C
8169 06/09/2026 11:51:00 MB-L5-01Mainboard Lantai 5 L5-LUX-02 Illuminance / LUX 2 2,652.70 lux
8170 06/09/2026 11:51:00 MB-L5-01Mainboard Lantai 5 L5-LUX-01 Illuminance / LUX 1 562.40 lux
8171 06/09/2026 11:51:00 MB-L5-01Mainboard Lantai 5 L5-LUX-06 Illuminance / LUX 6 822.80 lux
8172 06/09/2026 11:51:00 WS-MOD-01Weather Station Module WS-TEMP Suhu Udara 28.90 °C
8173 06/09/2026 11:51:00 MB-L5-01Mainboard Lantai 5 L5-SHT-02-T SHT20 2 Temperature 27.90 °C
8174 06/09/2026 11:51:00 MB-L5-01Mainboard Lantai 5 L5-AI-05 Analog Input 5 3.05 V
8175 06/09/2026 11:51:00 MB-L5-01Mainboard Lantai 5 L5-LUX-03 Illuminance / LUX 3 960.50 lux
8176 06/09/2026 11:51:00 MB-L5-01Mainboard Lantai 5 L5-HFT-02 Heat Flow Temperature 2 28.50 °C
8177 06/09/2026 11:51:00 MB-L5-01Mainboard Lantai 5 L5-BGT-02 Black Globe Temperature 2 27.80 °C
8178 06/09/2026 11:51:00 MB-L5-01Mainboard Lantai 5 L5-AI-02 Analog Input 2 3.05 V
8179 06/09/2026 11:51:00 WS-MOD-01Weather Station Module WS-RH Kelembapan Udara 39.90 %RH
8180 06/09/2026 11:51:00 MB-L5-01Mainboard Lantai 5 L5-LUX-04 Illuminance / LUX 4 540.60 lux
8181 06/09/2026 11:51:00 MB-L5-01Mainboard Lantai 5 L5-ST-01 Surface Temperature 1 28.70 °C
8182 06/09/2026 11:51:00 WS-MOD-01Weather Station Module WS-PRES Tekanan Udara 910.00 hPa
8183 06/09/2026 11:51:00 MB-L5-01Mainboard Lantai 5 L5-RAD-01 Radiation 1 4.00 W/m²
8184 06/09/2026 11:51:00 MB-L5-01Mainboard Lantai 5 L5-SHT-02-RH SHT20 2 Humidity 38.20 %RH
8185 06/09/2026 11:51:00 MB-L5-01Mainboard Lantai 5 L5-LUX-05 Illuminance / LUX 5 2,332.80 lux
8186 06/09/2026 11:51:00 MB-L5-01Mainboard Lantai 5 L5-AI-04 Analog Input 4 3.05 V
8187 06/09/2026 11:51:00 MB-L5-01Mainboard Lantai 5 L5-HFT-01 Heat Flow Temperature 1 29.50 °C
8188 06/09/2026 11:51:00 MB-L5-01Mainboard Lantai 5 L5-BGT-01 Black Globe Temperature 1 27.90 °C
8189 06/09/2026 11:51:00 MB-L5-01Mainboard Lantai 5 L5-RAD-02 Radiation 2 4.00 W/m²
8190 06/09/2026 11:51:00 MB-L5-01Mainboard Lantai 5 L5-AI-01 Analog Input 1 3.05 V
8191 06/09/2026 11:50:00 MB-L5-01Mainboard Lantai 5 L5-SHT-03-RH SHT20 3 Humidity 37.90 %RH
8192 06/09/2026 11:50:00 MB-L5-01Mainboard Lantai 5 L5-ST-02 Surface Temperature 2 31.30 °C
8193 06/09/2026 11:50:00 MB-L5-01Mainboard Lantai 5 L5-LUX-02 Illuminance / LUX 2 2,654.70 lux
8194 06/09/2026 11:50:00 MB-L5-01Mainboard Lantai 5 L5-LUX-01 Illuminance / LUX 1 568.50 lux
8195 06/09/2026 11:50:00 MB-L5-01Mainboard Lantai 5 L5-LUX-06 Illuminance / LUX 6 826.10 lux
8196 06/09/2026 11:50:00 WS-MOD-01Weather Station Module WS-TEMP Suhu Udara 28.80 °C
8197 06/09/2026 11:50:00 MB-L5-01Mainboard Lantai 5 L5-SHT-02-T SHT20 2 Temperature 27.90 °C
8198 06/09/2026 11:50:00 MB-L5-01Mainboard Lantai 5 L5-AI-05 Analog Input 5 3.05 V
8199 06/09/2026 11:50:00 MB-L5-01Mainboard Lantai 5 L5-LUX-03 Illuminance / LUX 3 964.80 lux
8200 06/09/2026 11:50:00 MB-L5-01Mainboard Lantai 5 L5-HFT-02 Heat Flow Temperature 2 28.40 °C
Menampilkan maksimal 100 data per halaman